sensor_id;sensor_type;location;lat;lon;timestamp;temperature;humidity
52321;DHT22;38261;54.090;13.382;2023-05-07T00:00:16;8.70;99.90
52321;DHT22;38261;54.090;13.382;2023-05-07T00:01:40;8.70;99.90
52321;DHT22;38261;54.090;13.382;2023-05-07T00:03:03;8.60;99.90
52321;DHT22;38261;54.090;13.382;2023-05-07T00:04:25;8.70;99.90
52321;DHT22;38261;54.090;13.382;2023-05-07T00:05:47;8.70;99.90
52321;DHT22;38261;54.090;13.382;2023-05-07T00:07:09;8.70;99.90
52321;DHT22;38261;54.090;13.382;2023-05-07T00:08:32;8.70;99.90
52321;DHT22;38261;54.090;13.382;2023-05-07T00:09:54;8.70;99.90
52321;DHT22;38261;54.090;13.382;2023-05-07T00:11:17;8.70;99.90
52321;DHT22;38261;54.090;13.382;2023-05-07T00:12:39;8.70;99.90
52321;DHT22;38261;54.090;13.382;2023-05-07T00:14:02;8.70;99.90
52321;DHT22;38261;54.090;13.382;2023-05-07T00:15:24;8.70;99.90
52321;DHT22;38261;54.090;13.382;2023-05-07T00:16:46;8.70;99.90
52321;DHT22;38261;54.090;13.382;2023-05-07T00:18:08;8.70;99.90
52321;DHT22;38261;54.090;13.382;2023-05-07T00:19:30;8.70;99.90
52321;DHT22;38261;54.090;13.382;2023-05-07T00:20:52;8.70;99.90
52321;DHT22;38261;54.090;13.382;2023-05-07T00:22:15;8.70;99.90
52321;DHT22;38261;54.090;13.382;2023-05-07T00:23:37;8.70;99.90
52321;DHT22;38261;54.090;13.382;2023-05-07T00:24:59;8.70;99.90
52321;DHT22;38261;54.090;13.382;2023-05-07T00:26:22;8.70;99.90
52321;DHT22;38261;54.090;13.382;2023-05-07T00:27:44;8.70;99.90
52321;DHT22;38261;54.090;13.382;2023-05-07T00:29:06;8.70;99.90
52321;DHT22;38261;54.090;13.382;2023-05-07T00:30:28;8.70;99.90
52321;DHT22;38261;54.090;13.382;2023-05-07T00:31:50;8.70;99.90
52321;DHT22;38261;54.090;13.382;2023-05-07T00:33:13;8.70;99.90
52321;DHT22;38261;54.090;13.382;2023-05-07T00:34:35;8.70;99.90
52321;DHT22;38261;54.090;13.382;2023-05-07T00:35:57;8.70;99.90
52321;DHT22;38261;54.090;13.382;2023-05-07T00:37:19;8.70;99.90
52321;DHT22;38261;54.090;13.382;2023-05-07T00:38:41;8.60;99.90
52321;DHT22;38261;54.090;13.382;2023-05-07T00:40:03;8.60;99.90
52321;DHT22;38261;54.090;13.382;2023-05-07T00:41:29;8.60;99.90
52321;DHT22;38261;54.090;13.382;2023-05-07T00:42:52;8.60;99.90
52321;DHT22;38261;54.090;13.382;2023-05-07T00:44:18;8.60;99.90
52321;DHT22;38261;54.090;13.382;2023-05-07T00:45:40;8.60;99.90
52321;DHT22;38261;54.090;13.382;2023-05-07T00:47:03;8.60;99.90
52321;DHT22;38261;54.090;13.382;2023-05-07T00:48:26;8.60;99.90
52321;DHT22;38261;54.090;13.382;2023-05-07T00:49:48;8.60;99.90
52321;DHT22;38261;54.090;13.382;2023-05-07T00:51:11;8.60;99.90
52321;DHT22;38261;54.090;13.382;2023-05-07T00:52:33;8.60;99.90
52321;DHT22;38261;54.090;13.382;2023-05-07T00:53:55;8.60;99.90
52321;DHT22;38261;54.090;13.382;2023-05-07T00:55:18;8.60;99.90
52321;DHT22;38261;54.090;13.382;2023-05-07T00:56:40;8.60;99.90
52321;DHT22;38261;54.090;13.382;2023-05-07T00:58:02;8.70;99.90
52321;DHT22;38261;54.090;13.382;2023-05-07T00:59:24;8.70;99.90
52321;DHT22;38261;54.090;13.382;2023-05-07T01:00:46;8.70;99.90
52321;DHT22;38261;54.090;13.382;2023-05-07T01:02:09;8.60;99.90
52321;DHT22;38261;54.090;13.382;2023-05-07T01:03:31;8.60;99.90
52321;DHT22;38261;54.090;13.382;2023-05-07T01:04:55;8.60;99.90
52321;DHT22;38261;54.090;13.382;2023-05-07T01:06:17;8.60;99.90
52321;DHT22;38261;54.090;13.382;2023-05-07T01:07:41;8.60;99.90
52321;DHT22;38261;54.090;13.382;2023-05-07T01:09:04;8.50;99.90
52321;DHT22;38261;54.090;13.382;2023-05-07T01:10:26;8.50;99.90
52321;DHT22;38261;54.090;13.382;2023-05-07T01:11:50;8.50;99.90
52321;DHT22;38261;54.090;13.382;2023-05-07T01:13:14;8.50;99.90
52321;DHT22;38261;54.090;13.382;2023-05-07T01:14:37;8.50;99.90
52321;DHT22;38261;54.090;13.382;2023-05-07T01:15:59;8.50;99.90
52321;DHT22;38261;54.090;13.382;2023-05-07T01:17:21;8.50;99.90
52321;DHT22;38261;54.090;13.382;2023-05-07T01:18:43;8.40;99.90
52321;DHT22;38261;54.090;13.382;2023-05-07T01:20:07;8.40;99.90
52321;DHT22;38261;54.090;13.382;2023-05-07T01:21:33;8.40;99.90
52321;DHT22;38261;54.090;13.382;2023-05-07T01:22:57;8.40;99.90
52321;DHT22;38261;54.090;13.382;2023-05-07T01:24:19;8.30;99.90
52321;DHT22;38261;54.090;13.382;2023-05-07T01:25:41;8.30;99.90
52321;DHT22;38261;54.090;13.382;2023-05-07T01:27:03;8.30;99.90
52321;DHT22;38261;54.090;13.382;2023-05-07T01:28:26;8.30;99.90
52321;DHT22;38261;54.090;13.382;2023-05-07T01:29:48;8.30;99.90
52321;DHT22;38261;54.090;13.382;2023-05-07T01:31:12;8.30;99.90
52321;DHT22;38261;54.090;13.382;2023-05-07T01:32:48;8.30;99.90
52321;DHT22;38261;54.090;13.382;2023-05-07T01:34:12;8.40;99.90
52321;DHT22;38261;54.090;13.382;2023-05-07T01:35:38;8.40;99.90
52321;DHT22;38261;54.090;13.382;2023-05-07T01:37:02;8.40;99.90
52321;DHT22;38261;54.090;13.382;2023-05-07T01:38:24;8.40;99.90
52321;DHT22;38261;54.090;13.382;2023-05-07T01:39:48;8.40;99.90
52321;DHT22;38261;54.090;13.382;2023-05-07T01:41:11;8.40;99.90
52321;DHT22;38261;54.090;13.382;2023-05-07T01:42:33;8.40;99.90
52321;DHT22;38261;54.090;13.382;2023-05-07T01:43:56;8.40;99.90
52321;DHT22;38261;54.090;13.382;2023-05-07T01:45:20;8.50;99.90
52321;DHT22;38261;54.090;13.382;2023-05-07T01:46:42;8.50;99.90
52321;DHT22;38261;54.090;13.382;2023-05-07T01:48:05;8.50;99.90
52321;DHT22;38261;54.090;13.382;2023-05-07T01:49:28;8.50;99.90
52321;DHT22;38261;54.090;13.382;2023-05-07T01:50:50;8.50;99.90
52321;DHT22;38261;54.090;13.382;2023-05-07T01:52:14;8.50;99.90
52321;DHT22;38261;54.090;13.382;2023-05-07T01:53:37;8.40;99.90
52321;DHT22;38261;54.090;13.382;2023-05-07T01:54:59;8.40;99.90
52321;DHT22;38261;54.090;13.382;2023-05-07T01:56:21;8.40;99.90
52321;DHT22;38261;54.090;13.382;2023-05-07T01:57:43;8.40;99.90
52321;DHT22;38261;54.090;13.382;2023-05-07T01:59:06;8.40;99.90
52321;DHT22;38261;54.090;13.382;2023-05-07T02:00:28;8.40;99.90
52321;DHT22;38261;54.090;13.382;2023-05-07T02:01:50;8.40;99.90
52321;DHT22;38261;54.090;13.382;2023-05-07T02:03:13;8.40;99.90
52321;DHT22;38261;54.090;13.382;2023-05-07T02:04:36;8.40;99.90
52321;DHT22;38261;54.090;13.382;2023-05-07T02:05:58;8.40;99.90
52321;DHT22;38261;54.090;13.382;2023-05-07T02:07:20;8.40;99.90
52321;DHT22;38261;54.090;13.382;2023-05-07T02:08:42;8.40;99.90
52321;DHT22;38261;54.090;13.382;2023-05-07T02:10:05;8.40;99.90
52321;DHT22;38261;54.090;13.382;2023-05-07T02:11:28;8.40;99.90
52321;DHT22;38261;54.090;13.382;2023-05-07T02:12:50;8.30;99.90
52321;DHT22;38261;54.090;13.382;2023-05-07T02:14:12;8.30;99.90
52321;DHT22;38261;54.090;13.382;2023-05-07T02:15:34;8.30;99.90
52321;DHT22;38261;54.090;13.382;2023-05-07T02:16:56;8.30;99.90
52321;DHT22;38261;54.090;13.382;2023-05-07T02:18:18;8.30;99.90
52321;DHT22;38261;54.090;13.382;2023-05-07T02:19:40;8.30;99.90
52321;DHT22;38261;54.090;13.382;2023-05-07T02:21:02;8.30;99.90
52321;DHT22;38261;54.090;13.382;2023-05-07T02:22:24;8.40;99.90
52321;DHT22;38261;54.090;13.382;2023-05-07T02:23:49;8.30;99.90
52321;DHT22;38261;54.090;13.382;2023-05-07T02:25:12;8.30;99.90
52321;DHT22;38261;54.090;13.382;2023-05-07T02:26:34;8.30;99.90
52321;DHT22;38261;54.090;13.382;2023-05-07T02:27:57;8.30;99.90
52321;DHT22;38261;54.090;13.382;2023-05-07T02:29:19;8.20;99.90
52321;DHT22;38261;54.090;13.382;2023-05-07T02:30:41;8.20;99.90
52321;DHT22;38261;54.090;13.382;2023-05-07T02:32:03;8.20;99.90
52321;DHT22;38261;54.090;13.382;2023-05-07T02:33:25;8.20;99.90
52321;DHT22;38261;54.090;13.382;2023-05-07T02:34:50;8.20;99.90
52321;DHT22;38261;54.090;13.382;2023-05-07T02:36:13;8.20;99.90
52321;DHT22;38261;54.090;13.382;2023-05-07T02:37:35;8.20;99.90
52321;DHT22;38261;54.090;13.382;2023-05-07T02:38:57;8.20;99.90
52321;DHT22;38261;54.090;13.382;2023-05-07T02:40:19;8.20;99.90
52321;DHT22;38261;54.090;13.382;2023-05-07T02:41:41;8.20;99.90
52321;DHT22;38261;54.090;13.382;2023-05-07T02:43:03;8.20;99.90
52321;DHT22;38261;54.090;13.382;2023-05-07T02:44:25;8.20;99.90
52321;DHT22;38261;54.090;13.382;2023-05-07T02:45:47;8.20;99.90
52321;DHT22;38261;54.090;13.382;2023-05-07T02:47:09;8.20;99.90
52321;DHT22;38261;54.090;13.382;2023-05-07T02:48:32;8.30;99.90
52321;DHT22;38261;54.090;13.382;2023-05-07T02:49:55;8.20;99.90
52321;DHT22;38261;54.090;13.382;2023-05-07T02:51:21;8.20;99.90
52321;DHT22;38261;54.090;13.382;2023-05-07T02:52:46;8.20;99.90
52321;DHT22;38261;54.090;13.382;2023-05-07T02:54:09;8.20;99.90
52321;DHT22;38261;54.090;13.382;2023-05-07T02:55:31;8.20;99.90
52321;DHT22;38261;54.090;13.382;2023-05-07T02:56:53;8.20;99.90
52321;DHT22;38261;54.090;13.382;2023-05-07T02:58:15;8.10;99.90
52321;DHT22;38261;54.090;13.382;2023-05-07T02:59:38;8.10;99.90
52321;DHT22;38261;54.090;13.382;2023-05-07T03:01:00;8.10;99.90
52321;DHT22;38261;54.090;13.382;2023-05-07T03:02:22;8.00;99.90
52321;DHT22;38261;54.090;13.382;2023-05-07T03:03:44;8.00;99.90
52321;DHT22;38261;54.090;13.382;2023-05-07T03:05:06;8.00;99.90
52321;DHT22;38261;54.090;13.382;2023-05-07T03:06:28;8.00;99.90
52321;DHT22;38261;54.090;13.382;2023-05-07T03:07:51;7.90;99.90
52321;DHT22;38261;54.090;13.382;2023-05-07T03:09:13;7.90;99.90
52321;DHT22;38261;54.090;13.382;2023-05-07T03:10:36;7.80;99.90
52321;DHT22;38261;54.090;13.382;2023-05-07T03:11:58;7.80;99.90
52321;DHT22;38261;54.090;13.382;2023-05-07T03:13:20;7.80;99.90
52321;DHT22;38261;54.090;13.382;2023-05-07T03:14:43;7.80;99.90
52321;DHT22;38261;54.090;13.382;2023-05-07T03:16:05;7.70;99.90
52321;DHT22;38261;54.090;13.382;2023-05-07T03:17:27;7.70;99.90
52321;DHT22;38261;54.090;13.382;2023-05-07T03:18:49;7.70;99.90
52321;DHT22;38261;54.090;13.382;2023-05-07T03:20:12;7.60;99.90
52321;DHT22;38261;54.090;13.382;2023-05-07T03:21:35;7.60;99.90
52321;DHT22;38261;54.090;13.382;2023-05-07T03:22:57;7.70;99.90
52321;DHT22;38261;54.090;13.382;2023-05-07T03:24:19;7.60;99.90
52321;DHT22;38261;54.090;13.382;2023-05-07T03:25:42;7.70;99.90
52321;DHT22;38261;54.090;13.382;2023-05-07T03:27:04;7.70;99.90
52321;DHT22;38261;54.090;13.382;2023-05-07T03:28:26;7.70;99.90
52321;DHT22;38261;54.090;13.382;2023-05-07T03:29:48;7.60;99.90
52321;DHT22;38261;54.090;13.382;2023-05-07T03:31:10;7.60;99.90
52321;DHT22;38261;54.090;13.382;2023-05-07T03:32:32;7.70;99.90
52321;DHT22;38261;54.090;13.382;2023-05-07T03:33:56;7.70;99.90
52321;DHT22;38261;54.090;13.382;2023-05-07T03:35:18;7.70;99.90
52321;DHT22;38261;54.090;13.382;2023-05-07T03:36:40;7.70;99.90
52321;DHT22;38261;54.090;13.382;2023-05-07T03:38:02;7.70;99.90
52321;DHT22;38261;54.090;13.382;2023-05-07T03:39:24;7.70;99.90
52321;DHT22;38261;54.090;13.382;2023-05-07T03:40:47;7.70;99.90
52321;DHT22;38261;54.090;13.382;2023-05-07T03:42:09;7.70;99.90
52321;DHT22;38261;54.090;13.382;2023-05-07T03:43:31;7.70;99.90
52321;DHT22;38261;54.090;13.382;2023-05-07T03:44:53;7.70;99.90
52321;DHT22;38261;54.090;13.382;2023-05-07T03:46:15;7.60;99.90
52321;DHT22;38261;54.090;13.382;2023-05-07T03:47:37;7.60;99.90
52321;DHT22;38261;54.090;13.382;2023-05-07T03:48:59;7.60;99.90
52321;DHT22;38261;54.090;13.382;2023-05-07T03:50:21;7.60;99.90
52321;DHT22;38261;54.090;13.382;2023-05-07T03:51:43;7.60;99.90
52321;DHT22;38261;54.090;13.382;2023-05-07T03:53:06;7.60;99.90
52321;DHT22;38261;54.090;13.382;2023-05-07T03:54:28;7.60;99.90
52321;DHT22;38261;54.090;13.382;2023-05-07T03:55:50;7.60;99.90
52321;DHT22;38261;54.090;13.382;2023-05-07T03:57:12;7.60;99.90
52321;DHT22;38261;54.090;13.382;2023-05-07T03:58:34;7.60;99.90
52321;DHT22;38261;54.090;13.382;2023-05-07T03:59:56;7.60;99.90
52321;DHT22;38261;54.090;13.382;2023-05-07T04:01:18;7.60;99.90
52321;DHT22;38261;54.090;13.382;2023-05-07T04:02:41;7.60;99.90
52321;DHT22;38261;54.090;13.382;2023-05-07T04:04:03;7.60;99.90
52321;DHT22;38261;54.090;13.382;2023-05-07T04:05:26;7.60;99.90
52321;DHT22;38261;54.090;13.382;2023-05-07T04:06:48;7.70;99.90
52321;DHT22;38261;54.090;13.382;2023-05-07T04:08:10;7.70;99.90
52321;DHT22;38261;54.090;13.382;2023-05-07T04:09:32;7.90;99.90
52321;DHT22;38261;54.090;13.382;2023-05-07T04:10:57;8.50;99.90
52321;DHT22;38261;54.090;13.382;2023-05-07T04:12:19;9.40;99.90
52321;DHT22;38261;54.090;13.382;2023-05-07T04:13:42;10.30;99.90
52321;DHT22;38261;54.090;13.382;2023-05-07T04:15:04;11.20;99.90
52321;DHT22;38261;54.090;13.382;2023-05-07T04:16:26;12.00;99.90
52321;DHT22;38261;54.090;13.382;2023-05-07T04:17:48;12.80;99.90
52321;DHT22;38261;54.090;13.382;2023-05-07T04:19:10;13.50;99.90
52321;DHT22;38261;54.090;13.382;2023-05-07T04:20:34;14.10;99.90
52321;DHT22;38261;54.090;13.382;2023-05-07T04:21:58;14.60;99.90
52321;DHT22;38261;54.090;13.382;2023-05-07T04:23:20;15.10;99.90
52321;DHT22;38261;54.090;13.382;2023-05-07T04:24:42;15.50;99.90
52321;DHT22;38261;54.090;13.382;2023-05-07T04:26:04;15.80;99.90
52321;DHT22;38261;54.090;13.382;2023-05-07T04:27:26;16.00;99.90
52321;DHT22;38261;54.090;13.382;2023-05-07T04:28:49;16.30;99.90
52321;DHT22;38261;54.090;13.382;2023-05-07T04:30:12;16.60;99.90
52321;DHT22;38261;54.090;13.382;2023-05-07T04:31:35;16.80;99.90
52321;DHT22;38261;54.090;13.382;2023-05-07T04:32:57;16.90;99.90
52321;DHT22;38261;54.090;13.382;2023-05-07T04:34:19;17.00;99.90
52321;DHT22;38261;54.090;13.382;2023-05-07T04:35:43;17.20;99.90
52321;DHT22;38261;54.090;13.382;2023-05-07T04:37:05;17.20;99.90
52321;DHT22;38261;54.090;13.382;2023-05-07T04:38:27;17.40;99.90
52321;DHT22;38261;54.090;13.382;2023-05-07T04:39:49;17.70;99.90
52321;DHT22;38261;54.090;13.382;2023-05-07T04:41:13;17.80;99.90
52321;DHT22;38261;54.090;13.382;2023-05-07T04:42:35;18.00;99.90
52321;DHT22;38261;54.090;13.382;2023-05-07T04:43:57;18.20;99.90
52321;DHT22;38261;54.090;13.382;2023-05-07T04:45:21;18.40;99.90
52321;DHT22;38261;54.090;13.382;2023-05-07T04:46:43;18.50;99.90
52321;DHT22;38261;54.090;13.382;2023-05-07T04:48:05;18.70;99.90
52321;DHT22;38261;54.090;13.382;2023-05-07T04:49:27;18.70;99.90
52321;DHT22;38261;54.090;13.382;2023-05-07T04:50:50;18.80;99.90
52321;DHT22;38261;54.090;13.382;2023-05-07T04:52:12;19.00;99.90
52321;DHT22;38261;54.090;13.382;2023-05-07T04:53:34;18.90;99.90
52321;DHT22;38261;54.090;13.382;2023-05-07T04:54:59;19.00;99.90
52321;DHT22;38261;54.090;13.382;2023-05-07T04:56:21;19.20;99.90
52321;DHT22;38261;54.090;13.382;2023-05-07T04:57:43;19.40;99.90
52321;DHT22;38261;54.090;13.382;2023-05-07T05:00:28;19.70;99.90
52321;DHT22;38261;54.090;13.382;2023-05-07T05:01:50;19.90;99.90
52321;DHT22;38261;54.090;13.382;2023-05-07T05:03:12;19.90;99.90
52321;DHT22;38261;54.090;13.382;2023-05-07T05:04:34;20.10;99.90
52321;DHT22;38261;54.090;13.382;2023-05-07T05:05:57;20.10;99.90
52321;DHT22;38261;54.090;13.382;2023-05-07T05:07:21;20.30;99.90
52321;DHT22;38261;54.090;13.382;2023-05-07T05:08:43;20.30;99.90
52321;DHT22;38261;54.090;13.382;2023-05-07T05:10:05;20.30;99.90
52321;DHT22;38261;54.090;13.382;2023-05-07T05:11:28;20.30;99.90
52321;DHT22;38261;54.090;13.382;2023-05-07T05:12:50;19.90;99.90
52321;DHT22;38261;54.090;13.382;2023-05-07T05:14:12;19.20;99.90
52321;DHT22;38261;54.090;13.382;2023-05-07T05:15:35;18.50;99.90
52321;DHT22;38261;54.090;13.382;2023-05-07T05:16:57;17.70;99.90
52321;DHT22;38261;54.090;13.382;2023-05-07T05:18:19;17.00;99.90
52321;DHT22;38261;54.090;13.382;2023-05-07T05:19:42;16.20;99.90
52321;DHT22;38261;54.090;13.382;2023-05-07T05:21:04;15.50;99.90
52321;DHT22;38261;54.090;13.382;2023-05-07T05:22:26;14.90;99.90
52321;DHT22;38261;54.090;13.382;2023-05-07T05:23:48;14.30;99.90
52321;DHT22;38261;54.090;13.382;2023-05-07T05:25:10;14.00;99.90
52321;DHT22;38261;54.090;13.382;2023-05-07T05:26:32;13.70;99.90
52321;DHT22;38261;54.090;13.382;2023-05-07T05:27:54;13.40;99.90
52321;DHT22;38261;54.090;13.382;2023-05-07T05:29:16;13.20;99.90
52321;DHT22;38261;54.090;13.382;2023-05-07T05:30:39;13.00;99.90
52321;DHT22;38261;54.090;13.382;2023-05-07T05:32:01;12.90;99.90
52321;DHT22;38261;54.090;13.382;2023-05-07T05:33:23;12.70;99.90
52321;DHT22;38261;54.090;13.382;2023-05-07T05:34:45;12.60;99.90
52321;DHT22;38261;54.090;13.382;2023-05-07T05:36:11;12.50;99.90
52321;DHT22;38261;54.090;13.382;2023-05-07T05:37:34;12.50;99.90
52321;DHT22;38261;54.090;13.382;2023-05-07T05:38:56;12.50;99.90
52321;DHT22;38261;54.090;13.382;2023-05-07T05:40:19;12.40;99.90
52321;DHT22;38261;54.090;13.382;2023-05-07T05:41:41;12.50;99.90
52321;DHT22;38261;54.090;13.382;2023-05-07T05:43:03;12.70;99.90
52321;DHT22;38261;54.090;13.382;2023-05-07T05:44:25;13.10;99.90
52321;DHT22;38261;54.090;13.382;2023-05-07T05:45:47;13.80;99.90
52321;DHT22;38261;54.090;13.382;2023-05-07T05:47:09;14.60;99.90
52321;DHT22;38261;54.090;13.382;2023-05-07T05:48:31;15.40;99.90
52321;DHT22;38261;54.090;13.382;2023-05-07T05:49:53;16.10;99.90
52321;DHT22;38261;54.090;13.382;2023-05-07T05:51:15;16.90;99.90
52321;DHT22;38261;54.090;13.382;2023-05-07T05:52:38;17.50;99.90
52321;DHT22;38261;54.090;13.382;2023-05-07T05:54:00;18.20;99.90
52321;DHT22;38261;54.090;13.382;2023-05-07T05:55:22;18.60;99.90
52321;DHT22;38261;54.090;13.382;2023-05-07T05:56:44;18.90;99.90
52321;DHT22;38261;54.090;13.382;2023-05-07T05:58:07;19.10;99.90
52321;DHT22;38261;54.090;13.382;2023-05-07T05:59:29;19.10;99.90
52321;DHT22;38261;54.090;13.382;2023-05-07T06:00:51;19.10;99.90
52321;DHT22;38261;54.090;13.382;2023-05-07T06:02:15;19.10;99.90
52321;DHT22;38261;54.090;13.382;2023-05-07T06:03:37;19.00;99.90
52321;DHT22;38261;54.090;13.382;2023-05-07T06:04:59;18.80;99.90
52321;DHT22;38261;54.090;13.382;2023-05-07T06:06:22;18.80;99.90
52321;DHT22;38261;54.090;13.382;2023-05-07T06:07:44;18.60;99.90
52321;DHT22;38261;54.090;13.382;2023-05-07T06:09:06;18.50;99.90
52321;DHT22;38261;54.090;13.382;2023-05-07T06:10:28;18.30;99.90
52321;DHT22;38261;54.090;13.382;2023-05-07T06:11:52;17.90;99.90
52321;DHT22;38261;54.090;13.382;2023-05-07T06:13:14;17.50;99.90
52321;DHT22;38261;54.090;13.382;2023-05-07T06:14:36;17.20;99.90
52321;DHT22;38261;54.090;13.382;2023-05-07T06:15:58;16.80;99.90
52321;DHT22;38261;54.090;13.382;2023-05-07T06:17:20;16.50;99.90
52321;DHT22;38261;54.090;13.382;2023-05-07T06:18:43;16.10;99.90
52321;DHT22;38261;54.090;13.382;2023-05-07T06:20:07;15.80;99.90
52321;DHT22;38261;54.090;13.382;2023-05-07T06:21:29;15.40;99.90
52321;DHT22;38261;54.090;13.382;2023-05-07T06:22:52;15.10;99.90
52321;DHT22;38261;54.090;13.382;2023-05-07T06:24:14;14.80;99.90
52321;DHT22;38261;54.090;13.382;2023-05-07T06:25:36;14.50;99.90
52321;DHT22;38261;54.090;13.382;2023-05-07T06:26:59;14.20;99.90
52321;DHT22;38261;54.090;13.382;2023-05-07T06:28:21;13.90;99.90
52321;DHT22;38261;54.090;13.382;2023-05-07T06:29:43;13.60;99.90
52321;DHT22;38261;54.090;13.382;2023-05-07T06:31:13;13.40;99.90
52321;DHT22;38261;54.090;13.382;2023-05-07T06:32:36;13.20;99.90
52321;DHT22;38261;54.090;13.382;2023-05-07T06:33:58;13.10;99.90
52321;DHT22;38261;54.090;13.382;2023-05-07T06:35:21;13.00;99.90
52321;DHT22;38261;54.090;13.382;2023-05-07T06:36:43;13.00;99.90
52321;DHT22;38261;54.090;13.382;2023-05-07T06:38:05;13.00;99.90
52321;DHT22;38261;54.090;13.382;2023-05-07T06:39:27;12.90;99.90
52321;DHT22;38261;54.090;13.382;2023-05-07T06:40:49;12.90;99.90
52321;DHT22;38261;54.090;13.382;2023-05-07T06:42:11;12.90;99.90
52321;DHT22;38261;54.090;13.382;2023-05-07T06:43:33;13.00;99.90
52321;DHT22;38261;54.090;13.382;2023-05-07T06:44:56;13.00;99.90
52321;DHT22;38261;54.090;13.382;2023-05-07T06:46:18;13.10;99.90
52321;DHT22;38261;54.090;13.382;2023-05-07T06:47:40;13.10;99.90
52321;DHT22;38261;54.090;13.382;2023-05-07T06:49:02;13.00;99.90
52321;DHT22;38261;54.090;13.382;2023-05-07T06:50:24;13.00;99.90
52321;DHT22;38261;54.090;13.382;2023-05-07T06:51:46;13.00;99.90
52321;DHT22;38261;54.090;13.382;2023-05-07T06:53:08;13.10;99.90
52321;DHT22;38261;54.090;13.382;2023-05-07T06:54:30;13.10;99.90
52321;DHT22;38261;54.090;13.382;2023-05-07T06:55:52;13.10;99.90
52321;DHT22;38261;54.090;13.382;2023-05-07T06:57:15;13.10;99.90
52321;DHT22;38261;54.090;13.382;2023-05-07T06:58:37;13.20;99.90
52321;DHT22;38261;54.090;13.382;2023-05-07T06:59:59;13.20;99.90
52321;DHT22;38261;54.090;13.382;2023-05-07T07:01:21;13.30;99.90
52321;DHT22;38261;54.090;13.382;2023-05-07T07:02:43;13.30;99.90
52321;DHT22;38261;54.090;13.382;2023-05-07T07:04:06;13.40;99.90
52321;DHT22;38261;54.090;13.382;2023-05-07T07:05:28;13.40;99.90
52321;DHT22;38261;54.090;13.382;2023-05-07T07:06:53;13.40;99.90
52321;DHT22;38261;54.090;13.382;2023-05-07T07:08:15;13.50;99.90
52321;DHT22;38261;54.090;13.382;2023-05-07T07:09:39;13.50;99.90
52321;DHT22;38261;54.090;13.382;2023-05-07T07:11:01;13.40;99.90
52321;DHT22;38261;54.090;13.382;2023-05-07T07:12:23;13.40;99.90
52321;DHT22;38261;54.090;13.382;2023-05-07T07:13:47;13.50;99.90
52321;DHT22;38261;54.090;13.382;2023-05-07T07:15:10;13.50;99.90
52321;DHT22;38261;54.090;13.382;2023-05-07T07:16:32;13.50;99.90
52321;DHT22;38261;54.090;13.382;2023-05-07T07:17:54;13.50;99.90
52321;DHT22;38261;54.090;13.382;2023-05-07T07:19:16;13.60;99.90
52321;DHT22;38261;54.090;13.382;2023-05-07T07:20:38;13.60;99.90
52321;DHT22;38261;54.090;13.382;2023-05-07T07:22:01;13.60;99.90
52321;DHT22;38261;54.090;13.382;2023-05-07T07:23:23;13.70;99.90
52321;DHT22;38261;54.090;13.382;2023-05-07T07:24:45;13.80;99.90
52321;DHT22;38261;54.090;13.382;2023-05-07T07:26:07;13.80;99.90
52321;DHT22;38261;54.090;13.382;2023-05-07T07:27:30;13.80;99.90
52321;DHT22;38261;54.090;13.382;2023-05-07T07:28:52;13.80;99.90
52321;DHT22;38261;54.090;13.382;2023-05-07T07:30:14;13.80;99.90
52321;DHT22;38261;54.090;13.382;2023-05-07T07:31:36;13.80;99.90
52321;DHT22;38261;54.090;13.382;2023-05-07T07:32:58;13.80;99.90
52321;DHT22;38261;54.090;13.382;2023-05-07T07:34:24;13.90;99.90
52321;DHT22;38261;54.090;13.382;2023-05-07T07:35:46;13.90;99.90
52321;DHT22;38261;54.090;13.382;2023-05-07T07:37:08;14.00;99.90
52321;DHT22;38261;54.090;13.382;2023-05-07T07:38:30;14.00;99.90
52321;DHT22;38261;54.090;13.382;2023-05-07T07:39:53;14.00;99.90
52321;DHT22;38261;54.090;13.382;2023-05-07T07:41:15;14.00;99.90
52321;DHT22;38261;54.090;13.382;2023-05-07T07:42:37;14.00;99.90
52321;DHT22;38261;54.090;13.382;2023-05-07T07:43:59;14.10;99.90
52321;DHT22;38261;54.090;13.382;2023-05-07T07:45:21;14.10;99.90
52321;DHT22;38261;54.090;13.382;2023-05-07T07:46:44;14.20;99.90
52321;DHT22;38261;54.090;13.382;2023-05-07T07:48:06;14.20;99.90
52321;DHT22;38261;54.090;13.382;2023-05-07T07:49:28;14.20;99.90
52321;DHT22;38261;54.090;13.382;2023-05-07T07:50:50;14.30;99.90
52321;DHT22;38261;54.090;13.382;2023-05-07T07:52:15;14.40;99.90
52321;DHT22;38261;54.090;13.382;2023-05-07T07:53:37;14.50;99.90
52321;DHT22;38261;54.090;13.382;2023-05-07T07:55:00;14.60;99.90
52321;DHT22;38261;54.090;13.382;2023-05-07T07:56:22;14.60;99.90
52321;DHT22;38261;54.090;13.382;2023-05-07T07:57:44;14.60;99.90
52321;DHT22;38261;54.090;13.382;2023-05-07T07:59:06;14.70;99.90
52321;DHT22;38261;54.090;13.382;2023-05-07T08:00:28;14.70;99.90
52321;DHT22;38261;54.090;13.382;2023-05-07T08:01:50;14.70;99.90
52321;DHT22;38261;54.090;13.382;2023-05-07T08:03:16;14.70;99.90
52321;DHT22;38261;54.090;13.382;2023-05-07T08:04:39;14.70;99.90
52321;DHT22;38261;54.090;13.382;2023-05-07T08:06:01;14.80;99.90
52321;DHT22;38261;54.090;13.382;2023-05-07T08:07:23;14.80;99.90
52321;DHT22;38261;54.090;13.382;2023-05-07T08:08:45;14.80;99.90
52321;DHT22;38261;54.090;13.382;2023-05-07T08:10:08;14.80;99.90
52321;DHT22;38261;54.090;13.382;2023-05-07T08:11:30;14.90;99.90
52321;DHT22;38261;54.090;13.382;2023-05-07T08:12:52;14.90;99.90
52321;DHT22;38261;54.090;13.382;2023-05-07T08:14:14;14.90;99.90
52321;DHT22;38261;54.090;13.382;2023-05-07T08:15:37;14.90;99.90
52321;DHT22;38261;54.090;13.382;2023-05-07T08:17:00;14.90;99.90
52321;DHT22;38261;54.090;13.382;2023-05-07T08:18:22;14.90;99.90
52321;DHT22;38261;54.090;13.382;2023-05-07T08:19:46;14.90;99.90
52321;DHT22;38261;54.090;13.382;2023-05-07T08:21:08;14.90;99.90
52321;DHT22;38261;54.090;13.382;2023-05-07T08:22:30;14.90;99.90
52321;DHT22;38261;54.090;13.382;2023-05-07T08:23:52;15.00;99.90
52321;DHT22;38261;54.090;13.382;2023-05-07T08:25:15;15.00;99.90
52321;DHT22;38261;54.090;13.382;2023-05-07T08:26:37;15.00;99.90
52321;DHT22;38261;54.090;13.382;2023-05-07T08:28:01;15.00;99.90
52321;DHT22;38261;54.090;13.382;2023-05-07T08:29:23;15.10;99.90
52321;DHT22;38261;54.090;13.382;2023-05-07T08:30:45;15.10;99.90
52321;DHT22;38261;54.090;13.382;2023-05-07T08:32:08;15.10;99.90
52321;DHT22;38261;54.090;13.382;2023-05-07T08:33:30;15.10;99.90
52321;DHT22;38261;54.090;13.382;2023-05-07T08:34:52;15.10;99.90
52321;DHT22;38261;54.090;13.382;2023-05-07T08:36:15;15.20;99.90
52321;DHT22;38261;54.090;13.382;2023-05-07T08:37:37;15.20;99.90